»·PEaware :: MET1524 KSAN-KLAS

MET1524 :: KSAN-KLAS

FLIGHT INFORMATION

Flight Status: Arrived
Operator:
MetroAir (website)
More flights by this operator :: More flights under this callsign
Pilot: Jamie M. (26320)
Aircraft: Boeing 787-8 Dreamliner
(B788)
More flights by this aircraft type
Origin: KSAN San Diego Intl-Lindbergh
United States
Destination: KLAS McCarran Intl
United States
More flights between these airports :: More routes between these airports
Route: +ZZOOO2 MTBAL TNP KEPEC6
File this flight plan on PilotEdge
Remarks:
Altitude:
(Current/Filed)
37,000ft
Speed:
(Current/Filed)
475kts
Departed: 03-Nov-19 05:59 PM
Arrived: 03-Nov-19 06:52 PM
Distance/Time
Traveled:
225nm/0:53
Distance/Time
To Go:
Arrived

Flight Plot

Page will automatically refresh every two minutes.

Flight plan parsing failed; only flown route is shown


Map Options




Map Legend


Flown Route
Filed Route
Departure Airport
Arrival Airport
Navaid (VOR, NDB)
Fix

Horizontal Profiles

Position Reports

Time Latitude Longitude Heading Altitude Ground
Speed
03-Nov-19 17:28 32.733164 -117.195733 226 28ft 0kts
03-Nov-19 17:29 32.733164 -117.195733 226 28ft 0kts
03-Nov-19 17:30 32.733164 -117.195733 226 28ft 0kts
03-Nov-19 17:31 32.733164 -117.195733 226 28ft 0kts
03-Nov-19 17:32 32.733164 -117.195733 226 28ft 0kts
03-Nov-19 17:33 32.733164 -117.195733 226 28ft 0kts
03-Nov-19 17:34 32.733164 -117.195733 226 28ft 0kts
03-Nov-19 17:35 32.733164 -117.195733 226 28ft 0kts
03-Nov-19 17:36 32.733164 -117.195733 226 28ft 0kts
03-Nov-19 17:37 32.733164 -117.195733 226 28ft 0kts
03-Nov-19 17:38 32.733164 -117.195733 226 28ft 0kts
03-Nov-19 17:40 32.733164 -117.195733 226 28ft 0kts
03-Nov-19 17:41 32.733164 -117.195733 226 28ft 0kts
03-Nov-19 17:42 32.733164 -117.195733 226 28ft 0kts
03-Nov-19 17:43 32.733164 -117.195733 226 28ft 0kts
03-Nov-19 17:44 32.733164 -117.195733 226 28ft 0kts
03-Nov-19 17:45 32.733164 -117.195733 226 28ft 0kts
03-Nov-19 17:46 32.733164 -117.195733 226 28ft 0kts
03-Nov-19 17:47 32.733164 -117.195733 226 28ft 0kts
03-Nov-19 17:48 32.733164 -117.195733 226 28ft 0kts
03-Nov-19 17:49 32.733164 -117.195733 226 28ft 0kts
03-Nov-19 17:50 32.733243 -117.195635 225 28ft 2kts
03-Nov-19 17:51 32.733704 -117.195113 233 28ft 2kts
03-Nov-19 17:52 32.733631 -117.195135 185 28ft 2kts
03-Nov-19 17:53 32.733566 -117.193635 106 28ft 18kts
03-Nov-19 17:54 32.731893 -117.186245 104 28ft 21kts
03-Nov-19 17:55 32.729845 -117.177894 105 28ft 18kts
03-Nov-19 17:56 32.729781 -117.177621 105 28ft 0kts
03-Nov-19 17:57 32.729780 -117.177616 105 28ft 0kts
03-Nov-19 17:58 32.730177 -117.175780 310 28ft 3kts
03-Nov-19 17:58 32.733614 -117.189935 286 63ft 181kts
03-Nov-19 18:00 32.751412 -117.263866 285 3944ft 213kts
03-Nov-19 18:01 32.718734 -117.316610 176 6546ft 270kts
03-Nov-19 18:01 32.665146 -117.274322 143 9593ft 289kts
03-Nov-19 18:02 32.617433 -117.193029 91 12025ft 351kts
03-Nov-19 18:04 32.613244 -117.050990 95 15633ft 381kts
03-Nov-19 18:04 32.604275 -116.944272 96 17901ft 398kts
03-Nov-19 18:05 32.624407 -116.811821 66 20251ft 421kts
03-Nov-19 18:06 32.712954 -116.722965 15 22340ft 436kts
03-Nov-19 18:07 32.830198 -116.675800 19 24357ft 455kts
03-Nov-19 18:08 32.949423 -116.617347 20 26358ft 470kts
03-Nov-19 18:09 33.071587 -116.555028 21 28170ft 486kts
03-Nov-19 18:10 33.197291 -116.489355 20 29831ft 501kts
03-Nov-19 18:11 33.326348 -116.421631 21 31549ft 512kts
03-Nov-19 18:12 33.436760 -116.312250 48 33464ft 522kts
03-Nov-19 18:13 33.523378 -116.175381 53 35779ft 513kts
03-Nov-19 18:14 33.614588 -116.046531 32 36934ft 506kts
03-Nov-19 18:15 33.740244 -115.971413 21 36946ft 504kts
03-Nov-19 18:16 33.868560 -115.902478 22 36982ft 505kts
03-Nov-19 18:17 33.996398 -115.833087 22 37019ft 505kts
03-Nov-19 18:18 34.119841 -115.752389 36 37058ft 506kts
03-Nov-19 18:19 34.226141 -115.641659 41 37040ft 503kts
03-Nov-19 18:20 34.331781 -115.532541 26 37020ft 497kts
03-Nov-19 18:21 34.459871 -115.471974 17 37040ft 493kts
03-Nov-19 18:22 34.589073 -115.415771 17 35631ft 493kts
03-Nov-19 18:23 34.718043 -115.358953 16 32633ft 493kts
03-Nov-19 18:24 34.850269 -115.362494 345 29661ft 472kts
03-Nov-19 18:25 34.974271 -115.406247 342 26655ft 456kts
03-Nov-19 18:26 35.093633 -115.452441 342 23648ft 443kts
03-Nov-19 18:27 35.209303 -115.497302 343 20681ft 428kts
03-Nov-19 18:28 35.319507 -115.540219 342 18221ft 400kts
03-Nov-19 18:29 35.422252 -115.580309 342 16738ft 379kts
03-Nov-19 18:30 35.519709 -115.618426 342 15337ft 344kts
03-Nov-19 18:31 35.604607 -115.651759 342 14079ft 301kts
03-Nov-19 18:32 35.684590 -115.660035 32 13042ft 304kts
03-Nov-19 18:33 35.746278 -115.588880 44 13033ft 303kts
03-Nov-19 18:34 35.822815 -115.568670 356 13051ft 296kts
03-Nov-19 18:35 35.905698 -115.567165 1 13025ft 298kts
03-Nov-19 18:36 35.977899 -115.532790 60 12602ft 293kts
03-Nov-19 18:37 36.009718 -115.441823 67 11732ft 284kts
03-Nov-19 18:38 36.029033 -115.349698 93 10788ft 280kts
03-Nov-19 18:39 36.022184 -115.253224 94 9575ft 283kts
03-Nov-19 18:40 36.015490 -115.157221 94 8567ft 277kts
03-Nov-19 18:41 36.009370 -115.065137 94 8031ft 257kts
03-Nov-19 18:42 36.004334 -114.980585 94 8025ft 242kts
03-Nov-19 18:43 35.999351 -114.897196 94 7326ft 241kts
03-Nov-19 18:44 36.017400 -114.826861 23 5746ft 223kts
03-Nov-19 18:45 36.063665 -114.848939 278 5006ft 194kts
03-Nov-19 18:46 36.065767 -114.915403 272 5031ft 193kts
03-Nov-19 18:47 36.068959 -114.978715 277 4476ft 170kts
03-Nov-19 18:48 36.073371 -115.031339 269 3574ft 154kts
03-Nov-19 18:49 36.073619 -115.090021 268 2700ft 168kts
03-Nov-19 18:50 36.073647 -115.141436 269 2194ft 66kts
03-Nov-19 18:51 36.074102 -115.149165 299 2194ft 13kts
03-Nov-19 18:52 36.077464 -115.152562 334 2194ft 0kts
03-Nov-19 18:53 36.078685 -115.150672 94 2194ft 11kts
03-Nov-19 18:54 36.078364 -115.145296 95 2194ft 16kts
03-Nov-19 18:55 36.079026 -115.141539 3 2194ft 12kts
03-Nov-19 18:56 36.080464 -115.140915 95 2194ft 6kts
03-Nov-19 18:57 36.080449 -115.140567 92 2194ft 0kts

Navigation Log

Ident Type
Flight plan parsing failed, navigation log unavailable